createdAt,value
2023-04-14T00:07:29.066Z,55.53
2023-04-14T00:22:30.919Z,59.45
2023-04-14T00:37:32.557Z,59.37
2023-04-14T00:52:34.366Z,58.97
2023-04-14T01:07:36.519Z,60.26
2023-04-14T01:22:47.912Z,60.22
2023-04-14T01:37:57.156Z,60.63
2023-04-14T01:53:00.384Z,60.91
2023-04-14T02:08:06.573Z,62.25
2023-04-14T02:23:08.251Z,60.06
2023-04-14T02:38:20.627Z,62.34
2023-04-14T02:53:25.503Z,63.11
2023-04-14T03:08:27.496Z,61.66
2023-04-14T03:23:29.948Z,62.27
2023-04-14T03:38:33.209Z,64.45
2023-04-14T03:53:38.153Z,62.60
2023-04-14T04:08:41.756Z,64.26
2023-04-14T04:23:46.523Z,65.04
2023-04-14T04:38:49.888Z,66.07
2023-04-14T04:53:52.353Z,65.44
2023-04-14T05:08:55.430Z,64.77
2023-04-14T05:23:57.100Z,64.24
2023-04-14T05:38:58.955Z,67.13
2023-04-14T05:54:00.947Z,64.84
2023-04-14T06:09:03.178Z,65.54
2023-04-14T06:24:05.259Z,62.22
2023-04-14T06:39:07.052Z,61.33
2023-04-14T06:54:08.721Z,60.65
2023-04-14T07:09:10.435Z,59.79
2023-04-14T07:24:14.769Z,58.41
2023-04-14T07:39:17.209Z,56.16
2023-04-14T07:54:19.097Z,53.66
2023-04-14T08:09:20.787Z,43.88
2023-04-14T08:24:22.529Z,39.56
2023-04-14T08:39:24.250Z,37.46
2023-04-14T08:54:27.404Z,37.15
2023-04-14T09:09:30.750Z,38.45
2023-04-14T09:24:34.486Z,34.96
2023-04-14T09:39:46.784Z,36.15
2023-04-14T09:54:54.903Z,37.30
2023-04-14T10:09:56.673Z,37.56
2023-04-14T10:24:59.603Z,39.74
2023-04-14T10:40:05.456Z,51.13
2023-04-14T10:55:11.689Z,62.36
2023-04-14T11:10:19.368Z,58.75
2023-04-14T11:25:24.382Z,57.11
2023-04-14T11:40:27.563Z,60.78
2023-04-14T11:55:29.871Z,72.36
2023-04-14T12:10:31.650Z,87.54
2023-04-14T12:25:33.566Z,89.03
2023-04-14T12:40:43.896Z,90.76
2023-04-14T12:55:45.597Z,90.04
2023-04-14T13:10:47.292Z,79.71
2023-04-14T13:25:49.360Z,74.93
2023-04-14T13:40:50.989Z,76.32
2023-04-14T13:55:52.668Z,70.60
2023-04-14T14:10:54.389Z,62.47
2023-04-14T14:25:56.344Z,50.38
2023-04-14T14:40:58.108Z,42.68
2023-04-14T14:56:00.154Z,38.85
2023-04-14T15:11:01.876Z,36.42
2023-04-14T15:26:03.890Z,36.44
2023-04-14T15:41:06.028Z,48.51
2023-04-14T15:56:07.795Z,48.42
2023-04-14T16:11:15.769Z,50.96
2023-04-14T16:26:17.614Z,46.95
2023-04-14T16:41:19.340Z,50.51
2023-04-14T16:56:20.998Z,52.56
2023-04-14T17:11:22.658Z,51.39
2023-04-14T17:26:24.806Z,49.81
2023-04-14T17:41:28.197Z,50.39
2023-04-14T17:56:31.693Z,46.21
2023-04-14T18:11:33.331Z,47.99
2023-04-14T18:26:34.948Z,52.49
2023-04-14T18:41:36.577Z,50.61
2023-04-14T18:56:38.250Z,56.68
2023-04-14T19:11:40.088Z,58.46
2023-04-14T19:26:41.737Z,61.36
2023-04-14T19:41:43.328Z,63.03
2023-04-14T19:56:45.178Z,65.71
2023-04-14T20:11:47.041Z,67.70
2023-04-14T20:26:48.637Z,64.69
2023-04-14T20:41:50.956Z,70.98
2023-04-14T20:56:52.759Z,73.54
2023-04-14T21:12:14.301Z,71.86
2023-04-14T21:27:17.394Z,72.76
2023-04-14T21:42:19.062Z,72.64
2023-04-14T21:57:45.570Z,72.10
2023-04-14T22:12:42.658Z,75.38
2023-04-14T22:27:44.317Z,76.28
2023-04-14T22:42:46.528Z,75.79
2023-04-14T22:57:48.834Z,73.17
2023-04-14T23:12:50.582Z,77.19
2023-04-14T23:27:52.393Z,77.91
2023-04-14T23:42:56.099Z,80.57
